Ana Sayfa
METAR-TAF:

METAR-TAF

Havaalanları :

Wink, Teksas, Amerika Birleşik Devletleri

Enlem: 31-46-47N, Boylam: 103-12-05W, yükseklik: 860 m

Güncel hava durumu gözlemi

Rapor saat 22:53 UTC de 26 dakika önce yapıldı.
Rüzgar değişken yönden 4 kt
Sıcaklık 23°C
Nem 16%
Basınç 1015 hPa
Görüş mesafesi: 16.1 km
Açık gökyüzü

METAR: KINK 262253Z AUTO VRB04KT 10SM CLR 23/M04 A2996 RMK AO2 SLP124 T02281039 $

Saat: 17:19 (23:19 UTC)

Tahmin

Rapor saat 17:30 UTC de 5 saat ve 49 dakika önce yapıldı.
Ayın 26'si saat 18 UTC'den ayın 27'si saat 18 UTC'ye kadar geçerli Tahmin
Rüzgar değişken yönden 3 kt
Görüş mesafesi: 10 km
Açık gökyüzü
Ayın 27'si saat 1500 UTC'den
Rüzgar batıdan 7 kt
Görüş mesafesi: 10 km
Açık gökyüzü

TAF: KINK 261730Z 2618/2718 VRB03KT P6SM SKC FM271500 27007KT P6SM SKC

4.000'den fazla havaalanı için hava durumu gözlemleri ve tahminleri (METAR ve TAF raporları).

Kullanılabilir istasyonlar harita üzerinde sarı ve kırmızı noktalarla gösterilir.

İstasyonun adını görmek için fareyi noktanın üzerinde gezdirin.

Sonrasında hava gözlem ve tahminlerini görmek için tıklayın.

Haritayı değiştirmek için: yaklaştırmak için siyah artı işaretli yeşil düğmeye ve uzaklaştırmak için de eksi işaretli düğmeye hızla tıklayın; bitişik haritalar için yeşil okları kullanın.


METAR-TAF: